CEC 2014 Haywood NORAM/Buff-Qualifier & Prologue | Zone4.ca



CEC 2014 Haywood NORAM/Buff-Qualifier & Prologue

Date: Jan 31, 2014
Official  Results
Location/Lieu: Nakkertok South Nordic Centre
Host Clubs Hôtes: Gatineau-Ottawa XC Clubs

Jury
TD / DT:  Shawn Sinclair 
ATD / DTA  Renée Thibeault 
Dir. Comp. Chief  Jim McCarthy 
CCC Dir. SFC  Dave Dyer 
Heure/Time: 10:00 am
Wind/Vent:  10km/hr Gusty Wind/Vent Dir: SW
Air Temp: -3 Snow/Neige T: -4
Weather/Météo: Sun/Cloud Snow/Neige: Groomed Powder

Junior B (M) 3 km. Free  Prologue  
PL Bib Name YOB Cat Rnk Div CCC# SFQ# FIS# Club Team Time Diff
1 306 William Dumas 1996 Junior B (M) 1996 1/35 QC 26913 16726 3100313 Chelsea Nordiq   0:06:00.17  
2 321 Maks Zechel 1997 Junior B (M) 1997 1/38 ON 27387     Nakkertok OST 0:06:12.50 +12.33
3 308 Brendon Howard 1996 Junior B (M) 1996 2/35 ON 25712     Nakkertok OST 0:06:13.06 +12.89
4 309 Philippe Boucher 1997 Junior B (M) 1997 2/38 QC 27362 12979 3100331 C.N. Skibec   0:06:13.07 +12.90
5 307 Julian Smith 1996 Junior B (M) 1996 3/35 ON 25614   3100332 Georgian Bay   0:06:15.16 +14.99
6 305 Aaron Fahey 1996 Junior B (M) 1996 4/35 QC 25784 13979 3100312 Chelsea Nordiq   0:06:16.65 +16.48
7 323 Julian Alexander-Cook 1997 Junior B (M) 1997 3/38 ON 27369     Nakkertok   0:06:16.67 +16.50
8 319 Ryan Jackson 1997 Junior B (M) 1997 4/38 ON 28149     Team Hardwood   0:06:17.87 +17.70
9 304 Maxime Raymond 1996 Junior B (M) 1996 5/35 QC 25618 17494 3100320 C.N. Skibec   0:06:19.21 +19.04
10 313 Stefan Martin 1997 Junior B (M) 1997 5/38 AB 27426     Canmore Nordic ADT 0:06:19.73 +19.56
11 302 Edouard Reed-Métayer 1996 Junior B (M) 1996 6/35 QC 25622 12986 3100303 C.N. Skibec   0:06:21.91 +21.74
12 326 Vincent Boucher 1997 Junior B (M) 1997 6/38 QC 28169 13672   Fondeurs-Laurentides   0:06:22.18 +22.01
13 333 Tristan Markov 1996 Junior B (M) 1996 7/35 ON 29496     Team Hardwood   0:06:24.54 +24.37
14 303 Antoine Blais 1997 Junior B (M) 1997 7/38 QC 27382 20896   C.N. Skibec   0:06:24.92 +24.75
15 311 Aaron Birosh 1996 Junior B (M) 1996 8/35 ON 21415     North Bay Nordic   0:06:26.73 +26.56
16 335 Gabriel Sarrazin 1997 Junior B (M) 1997 8/38 QC 28172 17552   Fondeurs-Laurentides   0:06:26.90 +26.73
17 366 Marcus Nussbaum 1997 Junior B (M) 1997 9/38 ON 27384     Nakkertok   0:06:29.69 +29.52
18 316 Avery Vreugdenhil-Beaucler 1996 Junior B (M) 1996 9/35 ON 25715     Nakkertok Carleton U 0:06:31.01 +30.84
19 317 Antoine Hébert 1996 Junior B (M) 1996 10/35 QC 25750 16011   Montériski   0:06:31.08 +30.91
20 332 Marcus Deuling 1997 Junior B (M) 1997 10/38 YT 24900     Whitehorse XC YTST 0:06:31.20 +31.03
21 322 Christopher Blakeney 1996 Junior B (M) 1996 11/35 ON 27398     Nakkertok   0:06:32.91 +32.74
22 325 Olivier Peloquin 1996 Junior B (M) 1996 12/35 QC 25616 19888   Montériski   0:06:35.34 +35.17
23 349 Luke Taylor 1996 Junior B (M) 1996 13/35 NF 29467     Avalon Nordic XCNL 0:06:37.16 +36.99
24 314 Adam Roberge 1997 Junior B (M) 1997 11/38 QC 28189 22607   Fondeurs-Laurentides   0:06:40.19 +40.02
25 315 Geoffrey Way-Nee 1996 Junior B (M) 1996 14/35 ON 29401     Kawartha Nordic   0:06:41.16 +40.99
26 320 Benjamin Thompson 1997 Junior B (M) 1997 12/38 AB 25734     Canmore Nordic ADT 0:06:41.78 +41.61
27 310 Anders Cowper 1996 Junior B (M) 1996 15/35 AB 25607   3100329 Rocky Mountain Racers AST 0:06:42.49 +42.32
28 329 Caelan McLean 1997 Junior B (M) 1997 13/38 YT 24898     Whitehorse XC YTST 0:06:42.73 +42.56
29 373 Mac Prawdzick 1997 Junior B (M) 1997 14/38 YT 30892     Whitehorse XC YTST 0:06:42.76 +42.59
30 324 Austin Valjas 1997 Junior B (M) 1997 15/38 ON 29263     Team Hardwood   0:06:44.13 +43.96
31 344 Félix-Antoine Vézina 1997 Junior B (M) 1997 16/38 QC 27357 27288   C.N. Skibec   0:06:46.53 +46.36
32 341 Noah Cooke 1997 Junior B (M) 1997 17/38 AB 27478     Foothills Nordic   0:06:46.62 +46.45
33 327 William Gourgues 1997 Junior B (M) 1997 18/38 QC 27419 5830   C.N. Skibec   0:06:47.14 +46.97
34 339 Hudson Lucier 1997 Junior B (M) 1997 19/38 YT 27367     Whitehorse XC YTST 0:06:47.59 +47.42
35 372 Edward Walsh 1996 Junior B (M) 1996 16/35 NS 26350     Martock XC   0:06:48.37 +48.20
36 338 Alexandre Leclerc 1996 Junior B (M) 1996 17/35 QC 28192 14800   Chelsea Nordiq   0:06:49.18 +49.01
37 312 Tate Macdonald 1996 Junior B (M) 1996 18/35 AB 25740     Fort Saskatchewan AST 0:06:50.17 +50.00
38 359 Mikell Blain-Rogers 1997 Junior B (M) 1997 20/38 ON 29312     North Bay Nordic   0:06:51.19 +51.02
39 337 Nathan Johnston 1996 Junior B (M) 1996 19/35 ON 25609     Walden Nordic   0:06:52.88 +52.71
40 342 Rod Bottrell 1997 Junior B (M) 1997 21/38 ON 27484     Georgian Bay   0:06:52.95 +52.78
41 330 Timothy Austen 1996 Junior B (M) 1996 20/35 ON 26342     Nakkertok   0:06:53.42 +53.25
42 331 David Laurie 1996 Junior B (M) 1996 21/35 ON 30238     Kawartha Nordic   0:06:56.02 +55.85
43 347 Dominique Druwe 1996 Junior B (M) 1996 22/35 MB 24887     Red River Nordic MBST 0:06:56.17 +56.00
44 328 Liam Browne 1997 Junior B (M) 1997 22/38 QC 28171 19868   Fondeurs-Laurentides   0:06:59.79 +59.62
45 348 Liam Veinotte 1997 Junior B (M) 1997 23/38 QC 28180 13775   Chelsea Nordiq   0:07:01.12 +1:00.95
46 336 Benjamin Dionne 1997 Junior B (M) 1997 24/38 QC 29386 12844   Skinouk   0:07:01.69 +1:01.52
47 369 Devin Martin 1996 Junior B (M) 1996 23/35 ON 25775     Mono Nordic   0:07:03.26 +1:03.09
48 334 Anthony Burgess 1997 Junior B (M) 1997 25/38 ON 30216     Mono Nordic   0:07:05.99 +1:05.82
49 368 Devon Ryan 1997 Junior B (M) 1997 26/38 NF 29466     Menihek Nordic XCNL 0:07:06.02 +1:05.85
50 318 Brady Harkonen 1996 Junior B (M) 1996 24/35 ON 23621     Lappe Nordic   0:07:06.90 +1:06.73
51 371 Hayden Estabrook 1996 Junior B (M) 1996 25/35 NS 31878     Martock XC   0:07:07.39 +1:07.22
52 340 Xavier Parent 1997 Junior B (M) 1997 27/38 QC 28861 23967   C.N. Skibec   0:07:08.46 +1:08.29
53 364 Samuel Anthony 1997 Junior B (M) 1997 28/38 MB 28158     Red River Nordic MBST 0:07:08.80 +1:08.63
54 361 Vincent Leclair 1996 Junior B (M) 1996 26/35 NB 24503     Aventuriers Charlo NBST 0:07:09.54 +1:09.37
55 355 Jason Greer 1996 Junior B (M) 1996 27/35 ON 28650     Georgian Nordic   0:07:11.64 +1:11.47
56 345 Kieran Tomlinson 1997 Junior B (M) 1997 29/38 ON 27393     Nakkertok   0:07:12.61 +1:12.44
57 362 Levi Warkentine 1997 Junior B (M) 1997 30/38 MB 28640     Boundary Trails Nordic MBST 0:07:13.86 +1:13.69
58 343 August Myers 1996 Junior B (M) 1996 28/35 QC 27358 22679 3100277 Orford   0:07:14.63 +1:14.46
59 374 Andrew Ladouceur 1997 Junior B (M) 1997 31/38 ON       Team Hardwood   0:07:15.50 +1:15.33
60 357 Nolan Scheier 1997 Junior B (M) 1997 32/38 ON 27363     Nakkertok   0:07:15.55 +1:15.38
61 360 Patrick Marshall 1997 Junior B (M) 1997 33/38 ON 27374     Nakkertok   0:07:16.11 +1:15.94
62 356 Pierre-Alexandre Vézina 1996 Junior B (M) 1996 29/35 QC 25606 19795   C.N. Skibec   0:07:16.86 +1:16.69
63 370 Connor Psiuk 1996 Junior B (M) 1996 30/35 NS 28857     Martock XC NSST 0:07:17.65 +1:17.48
64 358 Jacob Hanson 1997 Junior B (M) 1997 34/38 ON 28161     Walden Nordic   0:07:18.29 +1:18.12
65 350 Tobin Novosad Izquierdo 1997 Junior B (M) 1997 35/38 QC 30229 22605   Fondeurs-Laurentides   0:07:23.13 +1:22.96
66 351 Paul Ramsay-Vejlens 1996 Junior B (M) 1996 31/35 QC 31847 27572   Montériski   0:07:23.54 +1:23.37
67 353 Jacob Heroux 1996 Junior B (M) 1996 32/35 ON 27485     Temiskaming Nordic   0:07:24.44 +1:24.27
68 346 Thierry Niaison 1997 Junior B (M) 1997 36/38 QC 27506 22531 3100342 Fondeurs-Laurentides   0:07:34.54 +1:34.37
69 363 Émile Plazanet 1996 Junior B (M) 1996 33/35 QC 27434 20913   Défi T.M.   0:07:44.88 +1:44.71
70 354 Leo Dube 1997 Junior B (M) 1997 37/38 ON 27420     Big Thunder Nordic   0:07:46.48 +1:46.31
71 365 Maxence Guindon 1996 Junior B (M) 1996 34/35 QC 30226 24134   Fondeurs-Laurentides   0:07:50.41 +1:50.24
72 352 Andrew Cays 1996 Junior B (M) 1996 35/35 ON 26357     Team Hardwood   0:08:05.14 +2:04.97
73 367 Jérémi Fiset 1997 Junior B (M) 1997 38/38 QC 31857 27534   Défi T.M.   0:08:12.52 +2:12.35
DSQ 301 Joey Foster 1996 Junior B (M) 1996 * ON 28653   3100344 Team Hardwood   *** ***


Results are posted through an automated system by licenced clubs. For inquires about result corrections please contact the race organizer.

Copyright 2022 - Zone4 Systems zone4.ca       Privacy Policy     Delivery/Refund Policy     Terms of Service    Contact Zone4